KBAZ

New Braunfels Regional Airport

New Braunfels, Texas, USA
METAR KBAZ 231551Z 04010KT 10SM SCT009 BKN029 OVC037 14/12 A3019 RMK AO2 RAE28 SLP221 P0000 T01440122
Observed Flight Rules
Oct-23 @ 15:51 UTC (an hour ago) Marginal Visual Flight Rules
Wind Visibility Clouds
40° at 10 knots 10 miles
  • Scattered at 900' AGL
  • Broken at 2,900' AGL
  • Overcast at 3,700' AGL
Temperatures Readings Precipitation
Current 14°C / 57°F
Dewpoint 12°C / 54°F
Humidity 88%
Altimeter 30.19" Hg
Pressure 1022.1 hPa
Elevation 195
Current Rain 0.005
METAR KBAZ 231551Z 04010KT 10SM SCT009 BKN029 OVC037 14/12 A3019 RMK AO2 RAE28 SLP221 P0000 T01440122
Observed Flight Rules
Oct-23 @ 15:51 UTC
(an hour ago)
MVFR
Wind Visibility
40° at 10 knots 10 miles
Clouds
  • Scattered at 900' AGL
  • Broken at 2,900' AGL
  • Overcast at 3,700' AGL
Temperature Dewpoint
14°C / 57°F 12°C / 54°F
Humidity Altimeter Pressure
88% 30.19" Hg 1022.1 hPa
Current Rain
0.005